sensor_id;sensor_type;location;lat;lon;timestamp;pressure;altitude;pressure_sealevel;temperature;humidity
66381;BME280;53177;52.648;1.214;2022-08-19T00:02:23;100630.81;;;19.47;86.67
66381;BME280;53177;52.648;1.214;2022-08-19T00:04:48;100633.34;;;19.43;86.98
66381;BME280;53177;52.648;1.214;2022-08-19T00:07:20;100632.41;;;19.25;88.23
66381;BME280;53177;52.648;1.214;2022-08-19T00:09:45;100637.44;;;18.96;90.24
66381;BME280;53177;52.648;1.214;2022-08-19T00:12:11;100646.31;;;18.87;90.98
66381;BME280;53177;52.648;1.214;2022-08-19T00:14:37;100642.03;;;19.09;89.39
66381;BME280;53177;52.648;1.214;2022-08-19T00:17:04;100646.16;;;19.20;87.20
66381;BME280;53177;52.648;1.214;2022-08-19T00:19:29;100642.66;;;19.28;87.22
66381;BME280;53177;52.648;1.214;2022-08-19T00:21:55;100647.09;;;19.02;89.28
66381;BME280;53177;52.648;1.214;2022-08-19T00:24:21;100637.72;;;19.08;88.59
66381;BME280;53177;52.648;1.214;2022-08-19T00:26:48;100645.53;;;19.23;86.33
66381;BME280;53177;52.648;1.214;2022-08-19T00:29:16;100645.00;;;18.99;88.54
66381;BME280;53177;52.648;1.214;2022-08-19T00:31:43;100650.19;;;19.09;86.43
66381;BME280;53177;52.648;1.214;2022-08-19T00:34:09;100641.84;;;19.05;86.95
66381;BME280;53177;52.648;1.214;2022-08-19T00:36:34;100639.47;;;18.90;86.99
66381;BME280;53177;52.648;1.214;2022-08-19T00:39:00;100638.91;;;19.02;86.08
66381;BME280;53177;52.648;1.214;2022-08-19T00:41:26;100639.44;;;19.04;85.58
66381;BME280;53177;52.648;1.214;2022-08-19T00:44:05;100640.53;;;19.03;85.03
66381;BME280;53177;52.648;1.214;2022-08-19T00:46:32;100646.91;;;18.98;84.86
66381;BME280;53177;52.648;1.214;2022-08-19T00:48:59;100640.53;;;19.03;84.25
66381;BME280;53177;52.648;1.214;2022-08-19T00:51:29;100642.16;;;19.04;84.53
66381;BME280;53177;52.648;1.214;2022-08-19T00:53:58;100645.34;;;19.06;84.27
66381;BME280;53177;52.648;1.214;2022-08-19T00:56:24;100647.47;;;19.09;83.94
66381;BME280;53177;52.648;1.214;2022-08-19T00:58:52;100644.44;;;19.10;83.16
66381;BME280;53177;52.648;1.214;2022-08-19T01:01:19;100641.44;;;19.12;83.99
66381;BME280;53177;52.648;1.214;2022-08-19T01:03:44;100640.50;;;19.16;83.43
66381;BME280;53177;52.648;1.214;2022-08-19T01:06:09;100642.31;;;19.21;82.73
66381;BME280;53177;52.648;1.214;2022-08-19T01:08:35;100634.03;;;19.26;82.44
66381;BME280;53177;52.648;1.214;2022-08-19T01:11:00;100641.59;;;19.29;82.91
66381;BME280;53177;52.648;1.214;2022-08-19T01:13:29;100643.50;;;19.29;83.34
66381;BME280;53177;52.648;1.214;2022-08-19T01:16:07;100648.81;;;19.34;81.76
66381;BME280;53177;52.648;1.214;2022-08-19T01:18:38;100650.97;;;19.45;82.06
66381;BME280;53177;52.648;1.214;2022-08-19T01:21:31;100657.69;;;19.39;82.87
66381;BME280;53177;52.648;1.214;2022-08-19T01:23:58;100659.16;;;19.45;82.01
66381;BME280;53177;52.648;1.214;2022-08-19T01:26:26;100656.31;;;19.51;81.82
66381;BME280;53177;52.648;1.214;2022-08-19T01:28:55;100653.59;;;19.51;83.05
66381;BME280;53177;52.648;1.214;2022-08-19T01:31:24;100647.66;;;19.49;83.74
66381;BME280;53177;52.648;1.214;2022-08-19T01:33:52;100648.13;;;19.51;82.58
66381;BME280;53177;52.648;1.214;2022-08-19T01:36:35;100652.38;;;19.57;81.06
66381;BME280;53177;52.648;1.214;2022-08-19T01:39:05;100646.81;;;19.62;82.36
66381;BME280;53177;52.648;1.214;2022-08-19T01:41:31;100647.41;;;19.59;83.09
66381;BME280;53177;52.648;1.214;2022-08-19T01:43:56;100649.63;;;19.57;83.46
66381;BME280;53177;52.648;1.214;2022-08-19T01:46:22;100641.47;;;19.57;82.43
66381;BME280;53177;52.648;1.214;2022-08-19T01:48:47;100643.38;;;19.56;83.77
66381;BME280;53177;52.648;1.214;2022-08-19T01:51:13;100646.72;;;19.53;84.03
66381;BME280;53177;52.648;1.214;2022-08-19T01:53:40;100648.03;;;19.56;83.17
66381;BME280;53177;52.648;1.214;2022-08-19T01:56:06;100648.66;;;19.53;84.16
66381;BME280;53177;52.648;1.214;2022-08-19T01:58:35;100650.25;;;19.54;83.75
66381;BME280;53177;52.648;1.214;2022-08-19T02:01:03;100649.78;;;19.52;83.66
66381;BME280;53177;52.648;1.214;2022-08-19T02:03:29;100649.44;;;19.53;83.46
66381;BME280;53177;52.648;1.214;2022-08-19T02:05:59;100646.66;;;19.44;84.54
66381;BME280;53177;52.648;1.214;2022-08-19T02:08:36;100649.91;;;19.47;83.79
66381;BME280;53177;52.648;1.214;2022-08-19T02:11:03;100656.94;;;19.48;84.50
66381;BME280;53177;52.648;1.214;2022-08-19T02:13:29;100660.28;;;19.44;85.00
66381;BME280;53177;52.648;1.214;2022-08-19T02:15:54;100654.72;;;19.50;83.95
66381;BME280;53177;52.648;1.214;2022-08-19T02:18:20;100664.59;;;19.45;84.68
66381;BME280;53177;52.648;1.214;2022-08-19T02:20:46;100670.69;;;19.42;84.87
66381;BME280;53177;52.648;1.214;2022-08-19T02:23:16;100670.06;;;19.45;84.25
66381;BME280;53177;52.648;1.214;2022-08-19T02:25:44;100666.72;;;19.49;84.55
66381;BME280;53177;52.648;1.214;2022-08-19T02:28:11;100667.03;;;19.47;83.48
66381;BME280;53177;52.648;1.214;2022-08-19T02:30:37;100672.66;;;19.51;84.06
66381;BME280;53177;52.648;1.214;2022-08-19T02:33:04;100669.75;;;19.61;83.47
66381;BME280;53177;52.648;1.214;2022-08-19T02:35:30;100671.25;;;19.53;84.39
66381;BME280;53177;52.648;1.214;2022-08-19T02:37:55;100671.25;;;19.53;84.29
66381;BME280;53177;52.648;1.214;2022-08-19T02:40:39;100675.53;;;19.68;83.09
66381;BME280;53177;52.648;1.214;2022-08-19T02:43:07;100673.66;;;19.55;83.82
66381;BME280;53177;52.648;1.214;2022-08-19T02:45:35;100683.47;;;19.56;83.33
66381;BME280;53177;52.648;1.214;2022-08-19T02:48:01;100681.75;;;19.46;84.65
66381;BME280;53177;52.648;1.214;2022-08-19T02:50:26;100677.00;;;19.29;85.98
66381;BME280;53177;52.648;1.214;2022-08-19T02:52:52;100676.34;;;19.32;85.69
66381;BME280;53177;52.648;1.214;2022-08-19T02:55:17;100679.72;;;19.29;85.64
66381;BME280;53177;52.648;1.214;2022-08-19T02:57:42;100673.38;;;19.20;86.12
66381;BME280;53177;52.648;1.214;2022-08-19T03:00:08;100675.00;;;19.21;86.13
66381;BME280;53177;52.648;1.214;2022-08-19T03:02:37;100677.41;;;19.23;85.64
66381;BME280;53177;52.648;1.214;2022-08-19T03:05:04;100670.97;;;19.05;86.67
66381;BME280;53177;52.648;1.214;2022-08-19T03:07:30;100669.59;;;18.93;87.63
66381;BME280;53177;52.648;1.214;2022-08-19T03:09:55;100663.66;;;18.91;87.74
66381;BME280;53177;52.648;1.214;2022-08-19T03:12:21;100668.38;;;19.00;86.66
66381;BME280;53177;52.648;1.214;2022-08-19T03:14:46;100680.84;;;19.14;85.07
66381;BME280;53177;52.648;1.214;2022-08-19T03:17:12;100665.63;;;19.13;85.41
66381;BME280;53177;52.648;1.214;2022-08-19T03:19:37;100664.94;;;19.08;86.48
66381;BME280;53177;52.648;1.214;2022-08-19T03:22:03;100674.63;;;19.00;87.41
66381;BME280;53177;52.648;1.214;2022-08-19T03:24:30;100676.44;;;19.05;85.50
66381;BME280;53177;52.648;1.214;2022-08-19T03:26:57;100680.22;;;19.17;84.34
66381;BME280;53177;52.648;1.214;2022-08-19T03:29:25;100682.16;;;19.17;85.14
66381;BME280;53177;52.648;1.214;2022-08-19T03:31:52;100680.84;;;19.14;84.85
66381;BME280;53177;52.648;1.214;2022-08-19T03:34:24;100684.88;;;19.17;85.57
66381;BME280;53177;52.648;1.214;2022-08-19T03:36:52;100695.38;;;19.10;86.61
66381;BME280;53177;52.648;1.214;2022-08-19T03:39:19;100687.31;;;19.05;87.31
66381;BME280;53177;52.648;1.214;2022-08-19T03:41:46;100695.47;;;19.05;85.97
66381;BME280;53177;52.648;1.214;2022-08-19T03:44:20;100693.69;;;19.00;88.13
66381;BME280;53177;52.648;1.214;2022-08-19T03:46:51;100694.19;;;19.02;88.06
66381;BME280;53177;52.648;1.214;2022-08-19T03:49:17;100705.88;;;19.03;86.42
66381;BME280;53177;52.648;1.214;2022-08-19T03:51:42;100706.69;;;19.03;86.83
66381;BME280;53177;52.648;1.214;2022-08-19T03:54:11;100700.63;;;19.20;87.68
66381;BME280;53177;52.648;1.214;2022-08-19T03:56:39;100697.41;;;19.04;87.94
66381;BME280;53177;52.648;1.214;2022-08-19T03:59:07;100694.19;;;18.88;88.22
66381;BME280;53177;52.648;1.214;2022-08-19T04:01:32;100689.75;;;18.79;89.78
66381;BME280;53177;52.648;1.214;2022-08-19T04:03:58;100687.84;;;18.93;88.69
66381;BME280;53177;52.648;1.214;2022-08-19T04:06:32;100694.38;;;18.92;89.62
66381;BME280;53177;52.648;1.214;2022-08-19T04:08:59;100689.84;;;18.87;89.55
66381;BME280;53177;52.648;1.214;2022-08-19T04:11:29;100691.78;;;18.87;89.25
66381;BME280;53177;52.648;1.214;2022-08-19T04:13:55;100692.19;;;18.80;89.61
66381;BME280;53177;52.648;1.214;2022-08-19T04:16:23;100685.22;;;18.74;90.56
66381;BME280;53177;52.648;1.214;2022-08-19T04:18:48;100692.78;;;18.77;90.28
66381;BME280;53177;52.648;1.214;2022-08-19T04:21:20;100685.75;;;18.76;87.53
66381;BME280;53177;52.648;1.214;2022-08-19T04:23:46;100695.03;;;18.75;90.31
66381;BME280;53177;52.648;1.214;2022-08-19T04:26:20;100691.97;;;18.63;89.37
66381;BME280;53177;52.648;1.214;2022-08-19T04:28:47;100692.47;;;18.65;90.04
66381;BME280;53177;52.648;1.214;2022-08-19T04:31:20;100691.69;;;18.78;90.26
66381;BME280;53177;52.648;1.214;2022-08-19T04:33:47;100692.78;;;18.77;88.79
66381;BME280;53177;52.648;1.214;2022-08-19T04:36:22;100695.19;;;18.79;89.44
66381;BME280;53177;52.648;1.214;2022-08-19T04:38:49;100698.22;;;18.63;91.12
66381;BME280;53177;52.648;1.214;2022-08-19T04:41:15;100689.94;;;18.55;93.07
66381;BME280;53177;52.648;1.214;2022-08-19T04:43:59;100697.19;;;18.46;93.54
66381;BME280;53177;52.648;1.214;2022-08-19T04:46:24;100691.94;;;18.35;94.55
66381;BME280;53177;52.648;1.214;2022-08-19T04:48:49;100695.53;;;18.17;97.22
66381;BME280;53177;52.648;1.214;2022-08-19T04:51:16;100708.00;;;18.04;98.42
66381;BME280;53177;52.648;1.214;2022-08-19T04:53:43;100709.03;;;18.08;97.32
66381;BME280;53177;52.648;1.214;2022-08-19T04:56:13;100708.75;;;18.24;94.14
66381;BME280;53177;52.648;1.214;2022-08-19T04:58:41;100698.88;;;18.28;94.12
66381;BME280;53177;52.648;1.214;2022-08-19T05:01:08;100704.75;;;18.02;97.72
66381;BME280;53177;52.648;1.214;2022-08-19T05:03:34;100701.75;;;18.04;94.24
66381;BME280;53177;52.648;1.214;2022-08-19T05:06:07;100695.34;;;18.13;95.34
66381;BME280;53177;52.648;1.214;2022-08-19T05:08:34;100698.19;;;18.22;94.06
66381;BME280;53177;52.648;1.214;2022-08-19T05:11:06;100709.22;;;18.12;93.57
66381;BME280;53177;52.648;1.214;2022-08-19T05:13:33;100706.63;;;18.21;91.85
66381;BME280;53177;52.648;1.214;2022-08-19T05:15:58;100707.00;;;18.14;94.16
66381;BME280;53177;52.648;1.214;2022-08-19T05:18:25;100706.81;;;18.24;93.66
66381;BME280;53177;52.648;1.214;2022-08-19T05:21:11;100711.66;;;18.13;92.49
66381;BME280;53177;52.648;1.214;2022-08-19T05:23:56;100714.19;;;18.24;92.65
66381;BME280;53177;52.648;1.214;2022-08-19T05:26:23;100713.69;;;18.22;94.24
66381;BME280;53177;52.648;1.214;2022-08-19T05:28:54;100712.47;;;18.28;93.51
66381;BME280;53177;52.648;1.214;2022-08-19T05:31:20;100711.06;;;18.30;93.03
66381;BME280;53177;52.648;1.214;2022-08-19T05:33:46;100718.31;;;18.35;93.67
66381;BME280;53177;52.648;1.214;2022-08-19T05:36:12;100714.31;;;18.32;93.06
66381;BME280;53177;52.648;1.214;2022-08-19T05:38:38;100710.28;;;18.43;93.16
66381;BME280;53177;52.648;1.214;2022-08-19T05:41:11;100711.91;;;18.44;93.04
66381;BME280;53177;52.648;1.214;2022-08-19T05:43:37;100712.91;;;18.49;93.86
66381;BME280;53177;52.648;1.214;2022-08-19T05:46:04;100714.63;;;18.44;94.07
66381;BME280;53177;52.648;1.214;2022-08-19T05:48:30;100721.66;;;18.46;94.40
66381;BME280;53177;52.648;1.214;2022-08-19T05:50:56;100715.91;;;18.47;95.22
66381;BME280;53177;52.648;1.214;2022-08-19T05:53:22;100718.84;;;18.51;94.61
66381;BME280;53177;52.648;1.214;2022-08-19T05:55:47;100721.78;;;18.40;96.21
66381;BME280;53177;52.648;1.214;2022-08-19T05:58:12;100721.66;;;18.46;96.25
66381;BME280;53177;52.648;1.214;2022-08-19T06:00:38;100724.19;;;18.56;95.70
66381;BME280;53177;52.648;1.214;2022-08-19T06:03:05;100725.22;;;18.60;97.09
66381;BME280;53177;52.648;1.214;2022-08-19T06:05:31;100723.44;;;18.69;94.88
66381;BME280;53177;52.648;1.214;2022-08-19T06:07:57;100721.63;;;18.78;96.13
66381;BME280;53177;52.648;1.214;2022-08-19T06:10:25;100723.84;;;18.76;95.55
66381;BME280;53177;52.648;1.214;2022-08-19T06:12:51;100723.22;;;18.79;96.69
66381;BME280;53177;52.648;1.214;2022-08-19T06:15:17;100725.44;;;18.91;95.53
66381;BME280;53177;52.648;1.214;2022-08-19T06:17:43;100720.81;;;18.91;95.42
66381;BME280;53177;52.648;1.214;2022-08-19T06:20:11;100720.81;;;18.91;94.83
66381;BME280;53177;52.648;1.214;2022-08-19T06:22:43;100718.50;;;18.99;95.39
66381;BME280;53177;52.648;1.214;2022-08-19T06:25:10;100721.09;;;19.04;97.21
66381;BME280;53177;52.648;1.214;2022-08-19T06:27:36;100726.13;;;19.10;94.08
66381;BME280;53177;52.648;1.214;2022-08-19T06:30:03;100723.00;;;19.17;95.46
66381;BME280;53177;52.648;1.214;2022-08-19T06:32:29;100725.00;;;19.25;94.82
66381;BME280;53177;52.648;1.214;2022-08-19T06:34:55;100724.00;;;19.21;95.11
66381;BME280;53177;52.648;1.214;2022-08-19T06:37:21;100723.78;;;19.31;93.20
66381;BME280;53177;52.648;1.214;2022-08-19T06:39:48;100729.09;;;19.36;94.14
66381;BME280;53177;52.648;1.214;2022-08-19T06:42:14;100721.53;;;19.47;93.67
66381;BME280;53177;52.648;1.214;2022-08-19T06:44:42;100721.69;;;19.51;92.39
66381;BME280;53177;52.648;1.214;2022-08-19T06:47:10;100725.94;;;19.57;92.73
66381;BME280;53177;52.648;1.214;2022-08-19T06:49:37;100720.28;;;19.53;92.53
66381;BME280;53177;52.648;1.214;2022-08-19T06:52:03;100724.94;;;19.53;92.40
66381;BME280;53177;52.648;1.214;2022-08-19T06:54:29;100724.13;;;19.52;92.88
66381;BME280;53177;52.648;1.214;2022-08-19T06:56:57;100725.53;;;19.63;92.26
66381;BME280;53177;52.648;1.214;2022-08-19T06:59:24;100724.25;;;19.61;91.27
66381;BME280;53177;52.648;1.214;2022-08-19T07:01:55;100723.13;;;19.62;91.79
66381;BME280;53177;52.648;1.214;2022-08-19T07:04:23;100728.19;;;19.77;90.78
66381;BME280;53177;52.648;1.214;2022-08-19T07:06:55;100729.31;;;19.76;88.91
66381;BME280;53177;52.648;1.214;2022-08-19T07:09:22;100733.16;;;19.75;89.70
66381;BME280;53177;52.648;1.214;2022-08-19T07:11:50;100735.16;;;19.83;89.99
66381;BME280;53177;52.648;1.214;2022-08-19T07:14:17;100734.91;;;19.93;88.81
66381;BME280;53177;52.648;1.214;2022-08-19T07:16:44;100735.28;;;20.01;88.66
66381;BME280;53177;52.648;1.214;2022-08-19T07:19:11;100747.84;;;20.10;87.99
66381;BME280;53177;52.648;1.214;2022-08-19T07:21:37;100746.91;;;20.15;87.11
66381;BME280;53177;52.648;1.214;2022-08-19T07:24:03;100752.38;;;20.15;86.35
66381;BME280;53177;52.648;1.214;2022-08-19T07:26:37;100750.06;;;20.08;87.12
66381;BME280;53177;52.648;1.214;2022-08-19T07:29:04;100751.38;;;20.11;86.20
66381;BME280;53177;52.648;1.214;2022-08-19T07:31:29;100755.22;;;20.10;86.71
66381;BME280;53177;52.648;1.214;2022-08-19T07:33:56;100747.41;;;20.17;85.25
66381;BME280;53177;52.648;1.214;2022-08-19T07:36:27;100755.59;;;20.17;85.95
66381;BME280;53177;52.648;1.214;2022-08-19T07:38:59;100758.94;;;20.14;84.50
66381;BME280;53177;52.648;1.214;2022-08-19T07:41:26;100759.69;;;20.06;86.33
66381;BME280;53177;52.648;1.214;2022-08-19T07:43:54;100761.91;;;20.04;85.68
66381;BME280;53177;52.648;1.214;2022-08-19T07:46:19;100754.25;;;20.06;86.41
66381;BME280;53177;52.648;1.214;2022-08-19T07:48:49;100760.91;;;20.00;87.40
66381;BME280;53177;52.648;1.214;2022-08-19T07:51:18;100759.91;;;19.95;89.22
66381;BME280;53177;52.648;1.214;2022-08-19T07:53:44;100770.22;;;19.99;88.05
66381;BME280;53177;52.648;1.214;2022-08-19T07:56:12;100767.22;;;19.86;90.90
66381;BME280;53177;52.648;1.214;2022-08-19T07:58:41;100772.19;;;19.84;92.13
66381;BME280;53177;52.648;1.214;2022-08-19T08:01:10;100775.25;;;19.83;93.75
66381;BME280;53177;52.648;1.214;2022-08-19T08:03:36;100783.56;;;19.64;94.37
66381;BME280;53177;52.648;1.214;2022-08-19T08:06:21;100780.63;;;19.74;92.60
66381;BME280;53177;52.648;1.214;2022-08-19T08:09:06;100777.78;;;19.79;92.48
66381;BME280;53177;52.648;1.214;2022-08-19T08:11:57;100788.88;;;19.83;91.34
66381;BME280;53177;52.648;1.214;2022-08-19T08:14:27;100781.53;;;19.69;91.54
66381;BME280;53177;52.648;1.214;2022-08-19T08:16:55;100793.63;;;19.77;93.88
66381;BME280;53177;52.648;1.214;2022-08-19T08:19:22;100795.44;;;19.68;96.43
66381;BME280;53177;52.648;1.214;2022-08-19T08:21:49;100801.63;;;19.74;94.25
66381;BME280;53177;52.648;1.214;2022-08-19T08:24:15;100794.78;;;19.62;93.47
66381;BME280;53177;52.648;1.214;2022-08-19T08:26:40;100801.69;;;19.82;92.49
66381;BME280;53177;52.648;1.214;2022-08-19T08:29:07;100801.63;;;19.74;94.26
66381;BME280;53177;52.648;1.214;2022-08-19T08:31:36;100801.41;;;19.70;95.16
66381;BME280;53177;52.648;1.214;2022-08-19T08:34:02;100796.91;;;19.65;97.63
66381;BME280;53177;52.648;1.214;2022-08-19T08:36:28;100809.88;;;19.55;99.12
66381;BME280;53177;52.648;1.214;2022-08-19T08:38:53;100800.53;;;19.61;98.92
66381;BME280;53177;52.648;1.214;2022-08-19T08:43:59;100811.09;;;19.76;99.63
66381;BME280;53177;52.648;1.214;2022-08-19T08:47:03;100801.44;;;19.92;99.91
66381;BME280;53177;52.648;1.214;2022-08-19T08:49:48;100803.97;;;19.89;100.00
66381;BME280;53177;52.648;1.214;2022-08-19T08:52:24;100801.53;;;20.01;100.00
66381;BME280;53177;52.648;1.214;2022-08-19T08:54:53;100798.53;;;20.11;98.68
66381;BME280;53177;52.648;1.214;2022-08-19T08:58:06;100795.50;;;20.35;98.24
66381;BME280;53177;52.648;1.214;2022-08-19T09:02:58;100790.34;;;20.87;93.92
66381;BME280;53177;52.648;1.214;2022-08-19T09:05:33;100795.97;;;20.91;93.01
66381;BME280;53177;52.648;1.214;2022-08-19T09:10:44;100797.34;;;21.19;90.45
66381;BME280;53177;52.648;1.214;2022-08-19T09:16:12;100797.34;;;21.19;87.48
66381;BME280;53177;52.648;1.214;2022-08-19T09:18:45;100802.50;;;21.12;85.70
66381;BME280;53177;52.648;1.214;2022-08-19T09:21:13;100806.88;;;21.31;85.47
66381;BME280;53177;52.648;1.214;2022-08-19T09:23:39;100807.88;;;21.35;82.63
66381;BME280;53177;52.648;1.214;2022-08-19T09:26:14;100804.03;;;21.44;82.91
66381;BME280;53177;52.648;1.214;2022-08-19T09:28:41;100808.06;;;21.64;79.75
66381;BME280;53177;52.648;1.214;2022-08-19T09:31:10;100807.59;;;21.62;79.96
66381;BME280;53177;52.648;1.214;2022-08-19T09:33:36;100814.16;;;21.35;80.14
66381;BME280;53177;52.648;1.214;2022-08-19T09:36:05;100818.16;;;21.38;81.30
66381;BME280;53177;52.648;1.214;2022-08-19T09:38:31;100809.03;;;21.51;79.35
66381;BME280;53177;52.648;1.214;2022-08-19T09:41:04;100821.78;;;21.90;77.37
66381;BME280;53177;52.648;1.214;2022-08-19T09:43:31;100814.53;;;21.94;74.19
66381;BME280;53177;52.648;1.214;2022-08-19T09:45:57;100814.03;;;22.44;71.00
66381;BME280;53177;52.648;1.214;2022-08-19T09:48:22;100816.75;;;22.53;69.25
66381;BME280;53177;52.648;1.214;2022-08-19T09:50:48;100813.72;;;23.02;69.33
66381;BME280;53177;52.648;1.214;2022-08-19T09:53:16;100820.25;;;23.18;66.53
66381;BME280;53177;52.648;1.214;2022-08-19T09:55:42;100809.25;;;23.48;64.79
66381;BME280;53177;52.648;1.214;2022-08-19T09:58:07;100812.09;;;23.30;65.44
66381;BME280;53177;52.648;1.214;2022-08-19T10:00:33;100809.13;;;23.94;63.51
66381;BME280;53177;52.648;1.214;2022-08-19T10:02:58;100799.78;;;24.08;61.66
66381;BME280;53177;52.648;1.214;2022-08-19T10:05:24;100804.50;;;23.36;64.15
66381;BME280;53177;52.648;1.214;2022-08-19T10:08:09;100808.22;;;23.02;64.66
66381;BME280;53177;52.648;1.214;2022-08-19T10:10:35;100801.59;;;23.03;64.92
66381;BME280;53177;52.648;1.214;2022-08-19T10:13:01;100799.16;;;23.69;63.01
66381;BME280;53177;52.648;1.214;2022-08-19T10:15:26;100795.69;;;24.14;60.08
66381;BME280;53177;52.648;1.214;2022-08-19T10:17:52;100801.22;;;24.47;59.05
66381;BME280;53177;52.648;1.214;2022-08-19T10:20:18;100805.31;;;25.11;56.06
66381;BME280;53177;52.648;1.214;2022-08-19T10:22:43;100800.53;;;24.50;57.13
66381;BME280;53177;52.648;1.214;2022-08-19T10:25:09;100799.56;;;24.79;54.30
66381;BME280;53177;52.648;1.214;2022-08-19T10:27:34;100800.22;;;24.76;53.63
66381;BME280;53177;52.648;1.214;2022-08-19T10:30:00;100805.28;;;25.35;55.03
66381;BME280;53177;52.648;1.214;2022-08-19T10:32:26;100803.34;;;25.36;55.48
66381;BME280;53177;52.648;1.214;2022-08-19T10:34:52;100812.06;;;25.26;56.55
66381;BME280;53177;52.648;1.214;2022-08-19T10:37:18;100796.44;;;24.35;56.58
66381;BME280;53177;52.648;1.214;2022-08-19T10:39:46;100805.72;;;24.10;58.25
66381;BME280;53177;52.648;1.214;2022-08-19T10:42:13;100802.53;;;23.45;59.61
66381;BME280;53177;52.648;1.214;2022-08-19T10:44:39;100799.91;;;22.81;61.57
66381;BME280;53177;52.648;1.214;2022-08-19T10:47:05;100798.84;;;23.41;62.02
66381;BME280;53177;52.648;1.214;2022-08-19T10:49:31;100799.91;;;22.81;60.89
66381;BME280;53177;52.648;1.214;2022-08-19T10:51:57;100806.72;;;23.72;59.36
66381;BME280;53177;52.648;1.214;2022-08-19T10:54:41;100804.44;;;24.61;58.82
66381;BME280;53177;52.648;1.214;2022-08-19T10:57:25;100808.25;;;24.81;58.83
66381;BME280;53177;52.648;1.214;2022-08-19T10:59:55;100809.25;;;24.64;56.66
66381;BME280;53177;52.648;1.214;2022-08-19T11:02:21;100812.06;;;25.26;55.44
66381;BME280;53177;52.648;1.214;2022-08-19T11:04:47;100814.84;;;25.90;52.29
66381;BME280;53177;52.648;1.214;2022-08-19T11:07:14;100812.66;;;24.28;56.66
66381;BME280;53177;52.648;1.214;2022-08-19T11:09:41;100814.72;;;24.64;54.89
66381;BME280;53177;52.648;1.214;2022-08-19T11:12:08;100810.13;;;25.14;54.51
66381;BME280;53177;52.648;1.214;2022-08-19T11:14:39;100815.31;;;25.80;50.44
66381;BME280;53177;52.648;1.214;2022-08-19T11:17:05;100813.09;;;26.42;51.05
66381;BME280;53177;52.648;1.214;2022-08-19T11:19:31;100809.72;;;26.33;47.15
66381;BME280;53177;52.648;1.214;2022-08-19T11:21:56;100808.63;;;26.21;48.21
66381;BME280;53177;52.648;1.214;2022-08-19T11:24:24;100808.75;;;26.85;48.04
66381;BME280;53177;52.648;1.214;2022-08-19T11:26:52;100811.13;;;26.55;45.05
66381;BME280;53177;52.648;1.214;2022-08-19T11:29:20;100813.44;;;26.53;44.71
66381;BME280;53177;52.648;1.214;2022-08-19T11:31:48;100810.00;;;26.00;46.52
66381;BME280;53177;52.648;1.214;2022-08-19T11:34:20;100814.38;;;24.54;51.36
66381;BME280;53177;52.648;1.214;2022-08-19T11:36:47;100816.84;;;24.13;55.13
66381;BME280;53177;52.648;1.214;2022-08-19T11:39:17;100818.72;;;24.55;53.48
66381;BME280;53177;52.648;1.214;2022-08-19T11:41:43;100810.72;;;23.95;53.26
66381;BME280;53177;52.648;1.214;2022-08-19T11:44:09;100815.47;;;23.57;54.36
66381;BME280;53177;52.648;1.214;2022-08-19T11:46:36;100825.88;;;24.14;53.86
66381;BME280;53177;52.648;1.214;2022-08-19T11:49:03;100817.56;;;25.26;53.29
66381;BME280;53177;52.648;1.214;2022-08-19T11:51:30;100821.44;;;26.02;49.33
66381;BME280;53177;52.648;1.214;2022-08-19T11:53:58;100827.13;;;26.81;45.35
66381;BME280;53177;52.648;1.214;2022-08-19T11:56:24;100829.53;;;26.38;53.26
66381;BME280;53177;52.648;1.214;2022-08-19T11:58:50;100837.75;;;25.94;44.37
66381;BME280;53177;52.648;1.214;2022-08-19T12:01:19;100831.88;;;26.08;54.40
66381;BME280;53177;52.648;1.214;2022-08-19T12:03:46;100838.25;;;26.40;45.50
66381;BME280;53177;52.648;1.214;2022-08-19T12:06:15;100837.13;;;25.49;47.02
66381;BME280;53177;52.648;1.214;2022-08-19T12:08:41;100842.97;;;25.59;47.03
66381;BME280;53177;52.648;1.214;2022-08-19T12:11:08;100837.44;;;25.84;47.71
66381;BME280;53177;52.648;1.214;2022-08-19T12:13:34;100834.84;;;25.02;47.61
66381;BME280;53177;52.648;1.214;2022-08-19T12:15:59;100832.66;;;25.07;47.80
66381;BME280;53177;52.648;1.214;2022-08-19T12:18:26;100845.03;;;25.13;51.62
66381;BME280;53177;52.648;1.214;2022-08-19T12:20:53;100851.88;;;24.50;48.70
66381;BME280;53177;52.648;1.214;2022-08-19T12:23:20;100859.28;;;23.74;51.06
66381;BME280;53177;52.648;1.214;2022-08-19T12:25:47;100849.81;;;24.46;52.40
66381;BME280;53177;52.648;1.214;2022-08-19T12:28:20;100845.81;;;24.89;48.74
66381;BME280;53177;52.648;1.214;2022-08-19T12:30:48;100835.59;;;24.78;48.68
66381;BME280;53177;52.648;1.214;2022-08-19T12:33:14;100829.72;;;25.37;52.00
66381;BME280;53177;52.648;1.214;2022-08-19T12:35:41;100842.00;;;25.92;47.71
66381;BME280;53177;52.648;1.214;2022-08-19T12:38:07;100838.97;;;26.09;45.91
66381;BME280;53177;52.648;1.214;2022-08-19T12:40:32;100848.81;;;25.09;47.44
66381;BME280;53177;52.648;1.214;2022-08-19T12:42:58;100843.66;;;25.56;46.22
66381;BME280;53177;52.648;1.214;2022-08-19T12:45:24;100849.03;;;25.77;46.18
66381;BME280;53177;52.648;1.214;2022-08-19T12:47:49;100842.47;;;25.94;45.13
66381;BME280;53177;52.648;1.214;2022-08-19T12:50:16;100838.34;;;26.16;45.17
66381;BME280;53177;52.648;1.214;2022-08-19T12:52:41;100846.69;;;26.04;44.51
66381;BME280;53177;52.648;1.214;2022-08-19T12:55:08;100828.44;;;26.27;45.72
66381;BME280;53177;52.648;1.214;2022-08-19T12:57:33;100827.38;;;26.44;42.90
66381;BME280;53177;52.648;1.214;2022-08-19T13:00:06;100824.63;;;26.91;43.13
66381;BME280;53177;52.648;1.214;2022-08-19T13:02:36;100833.47;;;27.29;42.27
66381;BME280;53177;52.648;1.214;2022-08-19T13:05:03;100823.38;;;27.36;40.84
66381;BME280;53177;52.648;1.214;2022-08-19T13:07:31;100817.84;;;27.71;40.02